Terminal Aerodrome Forecast
Issued by NWS

Current Version | Previous Version | Text Only | Print | Product List | Glossary On
Versions: 1 2 3 4 5 6 7 8 9 10 11 12 13 14 15 16 17
000
FTUS41 KPBZ 241141 CCA
TAFAGC
TAF COR
KAGC 241141Z 2412/2512 20008KT P6SM BKN200
     FM242100 21010KT P6SM OVC100
     FM250800 18005KT 6SM -RA OVC050=

USA.gov is the U.S. government's official web portal to all federal, state and local government web resources and services.